sensor_id;sensor_type;location;lat;lon;timestamp;P1;durP1;ratioP1;P2;durP2;ratioP2
1995;SDS011;38556;47.068;15.408;2022-08-21T00:00:21;200.10;;;187.60;;
1995;SDS011;38556;47.068;15.408;2022-08-21T00:02:52;195.80;;;183.60;;
1995;SDS011;38556;47.068;15.408;2022-08-21T00:05:22;197.67;;;185.57;;
1995;SDS011;38556;47.068;15.408;2022-08-21T00:07:50;192.73;;;180.83;;
1995;SDS011;38556;47.068;15.408;2022-08-21T00:10:17;197.93;;;185.80;;
1995;SDS011;38556;47.068;15.408;2022-08-21T00:12:45;200.07;;;188.07;;
1995;SDS011;38556;47.068;15.408;2022-08-21T00:15:13;207.13;;;195.03;;
1995;SDS011;38556;47.068;15.408;2022-08-21T00:17:42;207.57;;;194.97;;
1995;SDS011;38556;47.068;15.408;2022-08-21T00:20:11;213.47;;;200.67;;
1995;SDS011;38556;47.068;15.408;2022-08-21T00:22:40;213.13;;;200.43;;
1995;SDS011;38556;47.068;15.408;2022-08-21T00:25:07;218.37;;;205.77;;
1995;SDS011;38556;47.068;15.408;2022-08-21T00:27:36;210.37;;;197.87;;
1995;SDS011;38556;47.068;15.408;2022-08-21T00:30:04;206.60;;;194.40;;
1995;SDS011;38556;47.068;15.408;2022-08-21T00:32:33;200.20;;;188.20;;
1995;SDS011;38556;47.068;15.408;2022-08-21T00:35:02;203.10;;;190.67;;
1995;SDS011;38556;47.068;15.408;2022-08-21T00:37:32;199.60;;;187.50;;
1995;SDS011;38556;47.068;15.408;2022-08-21T00:39:59;210.60;;;197.60;;
1995;SDS011;38556;47.068;15.408;2022-08-21T00:42:27;204.80;;;192.07;;
1995;SDS011;38556;47.068;15.408;2022-08-21T00:44:56;215.97;;;203.17;;
1995;SDS011;38556;47.068;15.408;2022-08-21T00:47:23;209.70;;;197.30;;
1995;SDS011;38556;47.068;15.408;2022-08-21T00:49:51;208.50;;;196.10;;
1995;SDS011;38556;47.068;15.408;2022-08-21T00:52:19;206.23;;;193.87;;
1995;SDS011;38556;47.068;15.408;2022-08-21T00:54:52;214.47;;;201.67;;
1995;SDS011;38556;47.068;15.408;2022-08-21T00:57:24;211.60;;;199.30;;
1995;SDS011;38556;47.068;15.408;2022-08-21T00:59:55;212.27;;;199.90;;
1995;SDS011;38556;47.068;15.408;2022-08-21T01:02:24;213.73;;;201.33;;
1995;SDS011;38556;47.068;15.408;2022-08-21T01:04:52;220.30;;;207.90;;
1995;SDS011;38556;47.068;15.408;2022-08-21T01:07:19;218.43;;;205.63;;
1995;SDS011;38556;47.068;15.408;2022-08-21T01:09:47;227.80;;;214.97;;
1995;SDS011;38556;47.068;15.408;2022-08-21T01:12:16;219.93;;;206.93;;
1995;SDS011;38556;47.068;15.408;2022-08-21T01:14:44;218.13;;;205.63;;
1995;SDS011;38556;47.068;15.408;2022-08-21T01:17:12;216.97;;;204.50;;
1995;SDS011;38556;47.068;15.408;2022-08-21T01:19:42;218.07;;;205.27;;
1995;SDS011;38556;47.068;15.408;2022-08-21T01:22:11;212.73;;;200.03;;
1995;SDS011;38556;47.068;15.408;2022-08-21T01:24:38;217.80;;;204.97;;
1995;SDS011;38556;47.068;15.408;2022-08-21T01:27:06;209.57;;;196.47;;
1995;SDS011;38556;47.068;15.408;2022-08-21T01:29:34;207.57;;;194.67;;
1995;SDS011;38556;47.068;15.408;2022-08-21T01:32:06;213.40;;;200.20;;
1995;SDS011;38556;47.068;15.408;2022-08-21T01:34:36;218.13;;;204.73;;
1995;SDS011;38556;47.068;15.408;2022-08-21T01:37:05;210.40;;;197.90;;
1995;SDS011;38556;47.068;15.408;2022-08-21T01:39:35;216.03;;;202.93;;
1995;SDS011;38556;47.068;15.408;2022-08-21T01:42:03;215.50;;;202.90;;
1995;SDS011;38556;47.068;15.408;2022-08-21T01:44:32;212.30;;;199.30;;
1995;SDS011;38556;47.068;15.408;2022-08-21T01:47:00;217.87;;;204.67;;
1995;SDS011;38556;47.068;15.408;2022-08-21T01:49:27;204.70;;;191.80;;
1995;SDS011;38556;47.068;15.408;2022-08-21T01:51:55;211.40;;;198.60;;
1995;SDS011;38556;47.068;15.408;2022-08-21T01:54:22;206.67;;;194.07;;
1995;SDS011;38556;47.068;15.408;2022-08-21T01:56:51;208.13;;;195.63;;
1995;SDS011;38556;47.068;15.408;2022-08-21T01:59:20;208.17;;;195.87;;
1995;SDS011;38556;47.068;15.408;2022-08-21T02:01:49;208.30;;;195.50;;
1995;SDS011;38556;47.068;15.408;2022-08-21T02:04:16;199.40;;;187.30;;
1995;SDS011;38556;47.068;15.408;2022-08-21T02:06:44;202.40;;;190.10;;
1995;SDS011;38556;47.068;15.408;2022-08-21T02:09:11;207.93;;;195.43;;
1995;SDS011;38556;47.068;15.408;2022-08-21T02:11:40;204.77;;;192.17;;
1995;SDS011;38556;47.068;15.408;2022-08-21T02:14:09;201.87;;;189.63;;
1995;SDS011;38556;47.068;15.408;2022-08-21T02:16:38;210.07;;;197.47;;
1995;SDS011;38556;47.068;15.408;2022-08-21T02:19:07;207.57;;;195.37;;
1995;SDS011;38556;47.068;15.408;2022-08-21T02:21:34;214.97;;;202.57;;
1995;SDS011;38556;47.068;15.408;2022-08-21T02:24:02;212.23;;;199.80;;
1995;SDS011;38556;47.068;15.408;2022-08-21T02:26:29;211.03;;;198.53;;
1995;SDS011;38556;47.068;15.408;2022-08-21T02:28:57;215.40;;;202.80;;
1995;SDS011;38556;47.068;15.408;2022-08-21T02:31:26;212.90;;;199.90;;
1995;SDS011;38556;47.068;15.408;2022-08-21T02:33:54;220.50;;;207.50;;
1995;SDS011;38556;47.068;15.408;2022-08-21T02:36:21;206.93;;;194.80;;
1995;SDS011;38556;47.068;15.408;2022-08-21T02:38:48;210.00;;;197.70;;
1995;SDS011;38556;47.068;15.408;2022-08-21T02:41:17;210.77;;;198.37;;
1995;SDS011;38556;47.068;15.408;2022-08-21T02:43:47;211.87;;;199.57;;
1995;SDS011;38556;47.068;15.408;2022-08-21T02:46:15;211.83;;;199.33;;
1995;SDS011;38556;47.068;15.408;2022-08-21T02:48:47;218.17;;;205.77;;
1995;SDS011;38556;47.068;15.408;2022-08-21T02:51:16;215.10;;;202.30;;
1995;SDS011;38556;47.068;15.408;2022-08-21T02:53:45;222.93;;;209.93;;
1995;SDS011;38556;47.068;15.408;2022-08-21T02:56:14;212.53;;;199.87;;
1995;SDS011;38556;47.068;15.408;2022-08-21T02:58:44;206.10;;;193.70;;
1995;SDS011;38556;47.068;15.408;2022-08-21T03:01:13;203.37;;;190.77;;
1995;SDS011;38556;47.068;15.408;2022-08-21T03:03:43;211.77;;;199.37;;
1995;SDS011;38556;47.068;15.408;2022-08-21T03:06:13;207.03;;;194.83;;
1995;SDS011;38556;47.068;15.408;2022-08-21T03:08:42;211.23;;;199.03;;
1995;SDS011;38556;47.068;15.408;2022-08-21T03:11:10;207.37;;;195.17;;
1995;SDS011;38556;47.068;15.408;2022-08-21T03:13:39;208.60;;;196.40;;
1995;SDS011;38556;47.068;15.408;2022-08-21T03:16:07;212.50;;;200.10;;
1995;SDS011;38556;47.068;15.408;2022-08-21T03:18:34;215.03;;;202.63;;
1995;SDS011;38556;47.068;15.408;2022-08-21T03:21:02;218.60;;;206.10;;
1995;SDS011;38556;47.068;15.408;2022-08-21T03:23:31;218.23;;;205.73;;
1995;SDS011;38556;47.068;15.408;2022-08-21T03:25:58;215.87;;;203.37;;
1995;SDS011;38556;47.068;15.408;2022-08-21T03:28:26;218.70;;;206.30;;
1995;SDS011;38556;47.068;15.408;2022-08-21T03:30:54;216.63;;;204.43;;
1995;SDS011;38556;47.068;15.408;2022-08-21T03:33:22;211.40;;;199.30;;
1995;SDS011;38556;47.068;15.408;2022-08-21T03:35:52;198.87;;;187.23;;
1995;SDS011;38556;47.068;15.408;2022-08-21T03:38:26;208.00;;;195.90;;
1995;SDS011;38556;47.068;15.408;2022-08-21T03:40:57;223.43;;;210.73;;
1995;SDS011;38556;47.068;15.408;2022-08-21T03:43:25;221.43;;;208.83;;
1995;SDS011;38556;47.068;15.408;2022-08-21T03:45:52;219.83;;;207.33;;
1995;SDS011;38556;47.068;15.408;2022-08-21T03:48:20;209.20;;;197.30;;
1995;SDS011;38556;47.068;15.408;2022-08-21T03:50:48;217.63;;;205.23;;
1995;SDS011;38556;47.068;15.408;2022-08-21T03:53:19;210.57;;;198.47;;
1995;SDS011;38556;47.068;15.408;2022-08-21T03:55:47;203.20;;;191.40;;
1995;SDS011;38556;47.068;15.408;2022-08-21T03:58:18;201.40;;;189.60;;
1995;SDS011;38556;47.068;15.408;2022-08-21T04:00:48;205.97;;;193.67;;
1995;SDS011;38556;47.068;15.408;2022-08-21T04:03:17;208.77;;;196.47;;
1995;SDS011;38556;47.068;15.408;2022-08-21T04:05:45;216.27;;;203.97;;
1995;SDS011;38556;47.068;15.408;2022-08-21T04:08:14;207.17;;;195.10;;
1995;SDS011;38556;47.068;15.408;2022-08-21T04:10:42;208.30;;;196.10;;
1995;SDS011;38556;47.068;15.408;2022-08-21T04:13:11;200.37;;;188.37;;
1995;SDS011;38556;47.068;15.408;2022-08-21T04:15:41;197.17;;;185.27;;
1995;SDS011;38556;47.068;15.408;2022-08-21T04:18:09;210.70;;;198.50;;
1995;SDS011;38556;47.068;15.408;2022-08-21T04:20:36;237.10;;;223.73;;
1995;SDS011;38556;47.068;15.408;2022-08-21T04:23:04;215.60;;;202.90;;
1995;SDS011;38556;47.068;15.408;2022-08-21T04:25:31;213.50;;;201.00;;
1995;SDS011;38556;47.068;15.408;2022-08-21T04:27:59;222.30;;;209.50;;
1995;SDS011;38556;47.068;15.408;2022-08-21T04:30:26;207.77;;;195.73;;
1995;SDS011;38556;47.068;15.408;2022-08-21T04:32:56;221.30;;;208.30;;
1995;SDS011;38556;47.068;15.408;2022-08-21T04:35:24;204.47;;;192.37;;
1995;SDS011;38556;47.068;15.408;2022-08-21T04:37:52;213.97;;;201.27;;
1995;SDS011;38556;47.068;15.408;2022-08-21T04:40:21;197.63;;;186.13;;
1995;SDS011;38556;47.068;15.408;2022-08-21T04:42:49;207.60;;;195.70;;
1995;SDS011;38556;47.068;15.408;2022-08-21T04:45:19;216.87;;;204.37;;
1995;SDS011;38556;47.068;15.408;2022-08-21T04:47:49;222.23;;;209.47;;
1995;SDS011;38556;47.068;15.408;2022-08-21T04:50:19;212.20;;;199.90;;
1995;SDS011;38556;47.068;15.408;2022-08-21T04:52:48;218.30;;;205.80;;
1995;SDS011;38556;47.068;15.408;2022-08-21T04:55:15;201.80;;;189.97;;
1995;SDS011;38556;47.068;15.408;2022-08-21T04:57:45;211.90;;;199.70;;
1995;SDS011;38556;47.068;15.408;2022-08-21T05:00:13;222.60;;;209.97;;
1995;SDS011;38556;47.068;15.408;2022-08-21T05:02:44;226.43;;;213.30;;
1995;SDS011;38556;47.068;15.408;2022-08-21T05:05:12;218.70;;;206.33;;
1995;SDS011;38556;47.068;15.408;2022-08-21T05:07:41;211.10;;;198.80;;
1995;SDS011;38556;47.068;15.408;2022-08-21T05:10:10;204.67;;;192.73;;
1995;SDS011;38556;47.068;15.408;2022-08-21T05:12:39;209.20;;;196.90;;
1995;SDS011;38556;47.068;15.408;2022-08-21T05:15:07;203.13;;;191.03;;
1995;SDS011;38556;47.068;15.408;2022-08-21T05:17:37;191.27;;;179.57;;
1995;SDS011;38556;47.068;15.408;2022-08-21T05:20:04;223.70;;;211.00;;
1995;SDS011;38556;47.068;15.408;2022-08-21T05:22:32;217.70;;;205.40;;
1995;SDS011;38556;47.068;15.408;2022-08-21T05:25:01;201.07;;;189.57;;
1995;SDS011;38556;47.068;15.408;2022-08-21T05:27:28;204.73;;;192.83;;
1995;SDS011;38556;47.068;15.408;2022-08-21T05:29:55;193.40;;;181.90;;
1995;SDS011;38556;47.068;15.408;2022-08-21T05:32:23;200.10;;;188.30;;
1995;SDS011;38556;47.068;15.408;2022-08-21T05:34:52;200.13;;;187.93;;
1995;SDS011;38556;47.068;15.408;2022-08-21T05:37:20;205.13;;;193.30;;
1995;SDS011;38556;47.068;15.408;2022-08-21T05:39:48;209.77;;;197.47;;
1995;SDS011;38556;47.068;15.408;2022-08-21T05:42:17;218.03;;;205.53;;
1995;SDS011;38556;47.068;15.408;2022-08-21T05:44:44;208.17;;;196.10;;
1995;SDS011;38556;47.068;15.408;2022-08-21T05:47:12;211.63;;;199.17;;
1995;SDS011;38556;47.068;15.408;2022-08-21T05:49:39;212.17;;;199.77;;
1995;SDS011;38556;47.068;15.408;2022-08-21T05:52:06;207.93;;;195.73;;
1995;SDS011;38556;47.068;15.408;2022-08-21T05:54:34;203.07;;;190.97;;
1995;SDS011;38556;47.068;15.408;2022-08-21T05:57:02;208.57;;;196.47;;
1995;SDS011;38556;47.068;15.408;2022-08-21T05:59:32;206.10;;;194.20;;
1995;SDS011;38556;47.068;15.408;2022-08-21T06:01:59;214.30;;;202.07;;
1995;SDS011;38556;47.068;15.408;2022-08-21T06:04:28;208.20;;;196.03;;
1995;SDS011;38556;47.068;15.408;2022-08-21T06:06:55;203.33;;;191.53;;
1995;SDS011;38556;47.068;15.408;2022-08-21T06:09:23;201.80;;;189.70;;
1995;SDS011;38556;47.068;15.408;2022-08-21T06:11:50;201.53;;;189.43;;
1995;SDS011;38556;47.068;15.408;2022-08-21T06:14:17;202.17;;;190.27;;
1995;SDS011;38556;47.068;15.408;2022-08-21T06:16:46;199.93;;;188.23;;
1995;SDS011;38556;47.068;15.408;2022-08-21T06:19:13;187.30;;;176.00;;
1995;SDS011;38556;47.068;15.408;2022-08-21T06:21:40;190.83;;;179.97;;
1995;SDS011;38556;47.068;15.408;2022-08-21T06:24:07;185.20;;;174.20;;
1995;SDS011;38556;47.068;15.408;2022-08-21T06:26:35;181.07;;;170.27;;
1995;SDS011;38556;47.068;15.408;2022-08-21T06:29:02;181.93;;;171.20;;
1995;SDS011;38556;47.068;15.408;2022-08-21T06:31:29;198.47;;;186.57;;
1995;SDS011;38556;47.068;15.408;2022-08-21T06:33:58;196.50;;;184.83;;
1995;SDS011;38556;47.068;15.408;2022-08-21T06:36:25;205.30;;;193.70;;
1995;SDS011;38556;47.068;15.408;2022-08-21T06:38:52;196.17;;;184.77;;
1995;SDS011;38556;47.068;15.408;2022-08-21T06:41:20;203.53;;;192.17;;
1995;SDS011;38556;47.068;15.408;2022-08-21T06:43:47;204.00;;;192.40;;
1995;SDS011;38556;47.068;15.408;2022-08-21T06:46:15;209.17;;;197.67;;
1995;SDS011;38556;47.068;15.408;2022-08-21T06:48:42;222.63;;;210.07;;
1995;SDS011;38556;47.068;15.408;2022-08-21T06:51:12;221.27;;;208.73;;
1995;SDS011;38556;47.068;15.408;2022-08-21T06:53:39;199.83;;;188.43;;
1995;SDS011;38556;47.068;15.408;2022-08-21T06:56:06;202.40;;;190.90;;
1995;SDS011;38556;47.068;15.408;2022-08-21T06:58:34;222.20;;;210.40;;
1995;SDS011;38556;47.068;15.408;2022-08-21T07:01:02;205.53;;;193.87;;
1995;SDS011;38556;47.068;15.408;2022-08-21T07:03:31;205.23;;;193.63;;
1995;SDS011;38556;47.068;15.408;2022-08-21T07:06:00;198.83;;;187.53;;
1995;SDS011;38556;47.068;15.408;2022-08-21T07:08:28;201.83;;;190.00;;
1995;SDS011;38556;47.068;15.408;2022-08-21T07:10:57;199.73;;;188.13;;
1995;SDS011;38556;47.068;15.408;2022-08-21T07:13:26;202.80;;;191.17;;
1995;SDS011;38556;47.068;15.408;2022-08-21T07:15:53;202.27;;;190.77;;
1995;SDS011;38556;47.068;15.408;2022-08-21T07:18:20;189.10;;;177.60;;
1995;SDS011;38556;47.068;15.408;2022-08-21T07:20:47;195.77;;;184.33;;
1995;SDS011;38556;47.068;15.408;2022-08-21T07:23:17;192.03;;;181.03;;
1995;SDS011;38556;47.068;15.408;2022-08-21T07:25:50;191.53;;;180.23;;
1995;SDS011;38556;47.068;15.408;2022-08-21T07:28:19;180.00;;;169.00;;
1995;SDS011;38556;47.068;15.408;2022-08-21T07:30:46;176.07;;;165.17;;
1995;SDS011;38556;47.068;15.408;2022-08-21T07:33:18;188.13;;;176.93;;
1995;SDS011;38556;47.068;15.408;2022-08-21T07:35:45;184.47;;;173.47;;
1995;SDS011;38556;47.068;15.408;2022-08-21T07:38:13;184.80;;;173.33;;
1995;SDS011;38556;47.068;15.408;2022-08-21T07:40:40;172.80;;;162.20;;
1995;SDS011;38556;47.068;15.408;2022-08-21T07:43:08;189.73;;;178.23;;
1995;SDS011;38556;47.068;15.408;2022-08-21T07:45:37;191.40;;;180.20;;
1995;SDS011;38556;47.068;15.408;2022-08-21T07:48:04;182.80;;;171.93;;
1995;SDS011;38556;47.068;15.408;2022-08-21T07:50:32;189.17;;;178.17;;
1995;SDS011;38556;47.068;15.408;2022-08-21T07:53:02;189.83;;;178.97;;
1995;SDS011;38556;47.068;15.408;2022-08-21T07:55:30;171.93;;;161.53;;
1995;SDS011;38556;47.068;15.408;2022-08-21T07:57:57;191.67;;;180.53;;
1995;SDS011;38556;47.068;15.408;2022-08-21T08:00:26;195.60;;;184.50;;
1995;SDS011;38556;47.068;15.408;2022-08-21T08:02:56;177.43;;;166.77;;
1995;SDS011;38556;47.068;15.408;2022-08-21T08:05:24;181.57;;;170.87;;
1995;SDS011;38556;47.068;15.408;2022-08-21T08:07:53;174.63;;;163.93;;
1995;SDS011;38556;47.068;15.408;2022-08-21T08:10:21;178.37;;;167.63;;
1995;SDS011;38556;47.068;15.408;2022-08-21T08:12:50;182.17;;;171.23;;
1995;SDS011;38556;47.068;15.408;2022-08-21T08:15:22;189.20;;;178.30;;
1995;SDS011;38556;47.068;15.408;2022-08-21T08:17:53;188.80;;;177.90;;
1995;SDS011;38556;47.068;15.408;2022-08-21T08:20:22;178.37;;;167.67;;
1995;SDS011;38556;47.068;15.408;2022-08-21T08:22:51;180.67;;;170.03;;
1995;SDS011;38556;47.068;15.408;2022-08-21T08:25:22;200.27;;;188.97;;
1995;SDS011;38556;47.068;15.408;2022-08-21T08:27:51;198.90;;;187.50;;
1995;SDS011;38556;47.068;15.408;2022-08-21T08:30:19;189.77;;;178.63;;
1995;SDS011;38556;47.068;15.408;2022-08-21T08:32:49;187.97;;;177.03;;
1995;SDS011;38556;47.068;15.408;2022-08-21T08:35:18;204.20;;;192.87;;
1995;SDS011;38556;47.068;15.408;2022-08-21T08:37:45;180.03;;;169.40;;
1995;SDS011;38556;47.068;15.408;2022-08-21T08:40:14;193.20;;;182.00;;
1995;SDS011;38556;47.068;15.408;2022-08-21T08:42:46;189.03;;;178.23;;
1995;SDS011;38556;47.068;15.408;2022-08-21T08:45:17;188.60;;;177.67;;
1995;SDS011;38556;47.068;15.408;2022-08-21T08:47:47;190.80;;;179.90;;
1995;SDS011;38556;47.068;15.408;2022-08-21T08:50:25;197.37;;;186.47;;
1995;SDS011;38556;47.068;15.408;2022-08-21T08:52:57;194.63;;;183.57;;
1995;SDS011;38556;47.068;15.408;2022-08-21T08:55:30;198.17;;;186.73;;
1995;SDS011;38556;47.068;15.408;2022-08-21T08:58:01;202.60;;;191.20;;
1995;SDS011;38556;47.068;15.408;2022-08-21T09:00:29;206.33;;;194.83;;
1995;SDS011;38556;47.068;15.408;2022-08-21T09:02:57;193.13;;;181.87;;
1995;SDS011;38556;47.068;15.408;2022-08-21T09:05:29;191.03;;;179.83;;
1995;SDS011;38556;47.068;15.408;2022-08-21T09:08:13;196.10;;;185.00;;
1995;SDS011;38556;47.068;15.408;2022-08-21T09:10:56;180.43;;;169.73;;
1995;SDS011;38556;47.068;15.408;2022-08-21T09:13:31;195.27;;;184.27;;
1995;SDS011;38556;47.068;15.408;2022-08-21T09:16:09;201.00;;;190.07;;
1995;SDS011;38556;47.068;15.408;2022-08-21T09:18:50;191.70;;;180.70;;
1995;SDS011;38556;47.068;15.408;2022-08-21T09:21:24;200.83;;;189.53;;
1995;SDS011;38556;47.068;15.408;2022-08-21T09:23:58;207.87;;;196.67;;
1995;SDS011;38556;47.068;15.408;2022-08-21T09:26:31;204.87;;;193.53;;
1995;SDS011;38556;47.068;15.408;2022-08-21T09:29:05;198.13;;;186.70;;
1995;SDS011;38556;47.068;15.408;2022-08-21T09:31:37;183.70;;;172.70;;
1995;SDS011;38556;47.068;15.408;2022-08-21T09:34:05;179.87;;;169.17;;
1995;SDS011;38556;47.068;15.408;2022-08-21T09:36:37;197.73;;;186.47;;
1995;SDS011;38556;47.068;15.408;2022-08-21T09:39:07;191.43;;;180.17;;
1995;SDS011;38556;47.068;15.408;2022-08-21T09:41:36;190.13;;;178.87;;
1995;SDS011;38556;47.068;15.408;2022-08-21T09:44:05;184.60;;;173.30;;
1995;SDS011;38556;47.068;15.408;2022-08-21T09:46:33;169.37;;;158.77;;
1995;SDS011;38556;47.068;15.408;2022-08-21T09:49:03;169.83;;;159.53;;
1995;SDS011;38556;47.068;15.408;2022-08-21T09:51:32;176.93;;;166.73;;
1995;SDS011;38556;47.068;15.408;2022-08-21T09:54:12;170.27;;;160.10;;
1995;SDS011;38556;47.068;15.408;2022-08-21T09:56:51;172.13;;;161.83;;
1995;SDS011;38556;47.068;15.408;2022-08-21T09:59:40;190.13;;;179.33;;
1995;SDS011;38556;47.068;15.408;2022-08-21T10:02:19;188.57;;;177.47;;
1995;SDS011;38556;47.068;15.408;2022-08-21T10:04:52;185.33;;;174.57;;
1995;SDS011;38556;47.068;15.408;2022-08-21T10:07:22;179.10;;;168.23;;
1995;SDS011;38556;47.068;15.408;2022-08-21T10:10:03;187.30;;;175.70;;
1995;SDS011;38556;47.068;15.408;2022-08-21T10:12:37;184.20;;;173.40;;
1995;SDS011;38556;47.068;15.408;2022-08-21T10:15:13;177.00;;;166.40;;
1995;SDS011;38556;47.068;15.408;2022-08-21T10:17:49;173.43;;;162.83;;
1995;SDS011;38556;47.068;15.408;2022-08-21T10:20:22;184.67;;;173.97;;
1995;SDS011;38556;47.068;15.408;2022-08-21T10:23:00;167.40;;;157.00;;
1995;SDS011;38556;47.068;15.408;2022-08-21T10:25:35;176.00;;;164.43;;
1995;SDS011;38556;47.068;15.408;2022-08-21T10:28:09;179.83;;;168.00;;
1995;SDS011;38556;47.068;15.408;2022-08-21T10:30:45;162.30;;;152.00;;
1995;SDS011;38556;47.068;15.408;2022-08-21T10:33:20;172.43;;;161.00;;
1995;SDS011;38556;47.068;15.408;2022-08-21T10:36:00;172.97;;;162.43;;
1995;SDS011;38556;47.068;15.408;2022-08-21T10:38:40;174.43;;;163.93;;
1995;SDS011;38556;47.068;15.408;2022-08-21T10:41:31;175.50;;;164.97;;
1995;SDS011;38556;47.068;15.408;2022-08-21T10:44:12;183.90;;;172.80;;
1995;SDS011;38556;47.068;15.408;2022-08-21T10:46:51;201.00;;;189.27;;
1995;SDS011;38556;47.068;15.408;2022-08-21T10:49:27;206.37;;;194.60;;
1995;SDS011;38556;47.068;15.408;2022-08-21T10:52:09;199.63;;;188.33;;
1995;SDS011;38556;47.068;15.408;2022-08-21T10:54:50;189.10;;;176.90;;
1995;SDS011;38556;47.068;15.408;2022-08-21T10:57:27;214.53;;;201.43;;
1995;SDS011;38556;47.068;15.408;2022-08-21T11:00:02;197.27;;;186.20;;
1995;SDS011;38556;47.068;15.408;2022-08-21T11:02:35;175.53;;;164.83;;
1995;SDS011;38556;47.068;15.408;2022-08-21T11:05:07;187.03;;;176.13;;
1995;SDS011;38556;47.068;15.408;2022-08-21T11:07:43;180.17;;;169.23;;
1995;SDS011;38556;47.068;15.408;2022-08-21T11:10:16;192.40;;;181.30;;
1995;SDS011;38556;47.068;15.408;2022-08-21T11:12:50;193.10;;;181.73;;
1995;SDS011;38556;47.068;15.408;2022-08-21T11:15:29;198.70;;;186.97;;
1995;SDS011;38556;47.068;15.408;2022-08-21T11:18:13;197.37;;;185.87;;
1995;SDS011;38556;47.068;15.408;2022-08-21T11:20:48;188.40;;;177.20;;
1995;SDS011;38556;47.068;15.408;2022-08-21T11:23:21;181.37;;;170.57;;
1995;SDS011;38556;47.068;15.408;2022-08-21T11:25:51;194.33;;;183.30;;
1995;SDS011;38556;47.068;15.408;2022-08-21T11:28:23;188.43;;;177.23;;
1995;SDS011;38556;47.068;15.408;2022-08-21T11:30:58;193.03;;;181.50;;
1995;SDS011;38556;47.068;15.408;2022-08-21T11:36:33;199.47;;;187.83;;
1995;SDS011;38556;47.068;15.408;2022-08-21T11:39:12;182.97;;;171.77;;
1995;SDS011;38556;47.068;15.408;2022-08-21T11:41:52;192.70;;;181.50;;
1995;SDS011;38556;47.068;15.408;2022-08-21T11:44:31;177.40;;;166.60;;
1995;SDS011;38556;47.068;15.408;2022-08-21T11:47:08;175.13;;;164.47;;
1995;SDS011;38556;47.068;15.408;2022-08-21T11:49:47;186.10;;;175.00;;
1995;SDS011;38556;47.068;15.408;2022-08-21T11:52:23;191.03;;;179.83;;
1995;SDS011;38556;47.068;15.408;2022-08-21T11:54:56;175.70;;;164.90;;
1995;SDS011;38556;47.068;15.408;2022-08-21T11:57:29;184.80;;;174.00;;
1995;SDS011;38556;47.068;15.408;2022-08-21T12:00:03;173.97;;;163.27;;
1995;SDS011;38556;47.068;15.408;2022-08-21T12:02:35;174.37;;;163.57;;
1995;SDS011;38556;47.068;15.408;2022-08-21T12:05:06;195.90;;;184.57;;
1995;SDS011;38556;47.068;15.408;2022-08-21T12:07:39;198.10;;;187.00;;
1995;SDS011;38556;47.068;15.408;2022-08-21T12:10:08;202.83;;;191.37;;
1995;SDS011;38556;47.068;15.408;2022-08-21T12:12:40;189.47;;;178.27;;
1995;SDS011;38556;47.068;15.408;2022-08-21T12:15:22;198.23;;;187.03;;
1995;SDS011;38556;47.068;15.408;2022-08-21T12:17:54;190.57;;;179.57;;
1995;SDS011;38556;47.068;15.408;2022-08-21T12:20:33;198.87;;;187.47;;
1995;SDS011;38556;47.068;15.408;2022-08-21T12:23:17;192.27;;;180.90;;
1995;SDS011;38556;47.068;15.408;2022-08-21T12:25:59;185.07;;;174.07;;
1995;SDS011;38556;47.068;15.408;2022-08-21T12:28:29;199.33;;;188.13;;
1995;SDS011;38556;47.068;15.408;2022-08-21T12:30:59;209.23;;;197.43;;
1995;SDS011;38556;47.068;15.408;2022-08-21T12:33:28;220.03;;;207.93;;
1995;SDS011;38556;47.068;15.408;2022-08-21T12:36:02;187.33;;;176.20;;
1995;SDS011;38556;47.068;15.408;2022-08-21T12:38:33;206.30;;;194.80;;
1995;SDS011;38556;47.068;15.408;2022-08-21T12:41:14;198.47;;;187.27;;
1995;SDS011;38556;47.068;15.408;2022-08-21T12:43:46;191.57;;;180.47;;
1995;SDS011;38556;47.068;15.408;2022-08-21T12:46:20;200.03;;;188.43;;
1995;SDS011;38556;47.068;15.408;2022-08-21T12:48:52;191.03;;;179.93;;
1995;SDS011;38556;47.068;15.408;2022-08-21T12:51:24;187.63;;;176.60;;
1995;SDS011;38556;47.068;15.408;2022-08-21T12:53:57;200.67;;;189.27;;
1995;SDS011;38556;47.068;15.408;2022-08-21T12:56:26;188.33;;;177.23;;
1995;SDS011;38556;47.068;15.408;2022-08-21T12:58:57;203.47;;;191.77;;
1995;SDS011;38556;47.068;15.408;2022-08-21T13:01:32;184.27;;;173.07;;
1995;SDS011;38556;47.068;15.408;2022-08-21T13:04:02;195.77;;;184.33;;
1995;SDS011;38556;47.068;15.408;2022-08-21T13:06:54;213.20;;;201.20;;
1995;SDS011;38556;47.068;15.408;2022-08-21T13:09:26;191.57;;;180.67;;
1995;SDS011;38556;47.068;15.408;2022-08-21T13:11:54;179.90;;;168.90;;
1995;SDS011;38556;47.068;15.408;2022-08-21T13:14:25;186.80;;;175.50;;
1995;SDS011;38556;47.068;15.408;2022-08-21T13:16:59;191.60;;;180.10;;
1995;SDS011;38556;47.068;15.408;2022-08-21T13:19:27;219.63;;;207.33;;
1995;SDS011;38556;47.068;15.408;2022-08-21T13:21:55;199.00;;;187.53;;
1995;SDS011;38556;47.068;15.408;2022-08-21T13:24:23;212.27;;;200.37;;
1995;SDS011;38556;47.068;15.408;2022-08-21T13:26:52;212.60;;;200.60;;
1995;SDS011;38556;47.068;15.408;2022-08-21T13:29:22;213.37;;;201.47;;
1995;SDS011;38556;47.068;15.408;2022-08-21T13:31:53;208.83;;;196.93;;
1995;SDS011;38556;47.068;15.408;2022-08-21T13:34:25;191.63;;;180.20;;
1995;SDS011;38556;47.068;15.408;2022-08-21T13:36:57;193.90;;;182.40;;
1995;SDS011;38556;47.068;15.408;2022-08-21T13:39:27;189.97;;;178.77;;
1995;SDS011;38556;47.068;15.408;2022-08-21T13:41:55;175.93;;;165.23;;
1995;SDS011;38556;47.068;15.408;2022-08-21T13:44:31;202.77;;;190.87;;
1995;SDS011;38556;47.068;15.408;2022-08-21T13:47:01;204.90;;;192.80;;
1995;SDS011;38556;47.068;15.408;2022-08-21T13:49:32;190.70;;;179.13;;
1995;SDS011;38556;47.068;15.408;2022-08-21T13:52:02;197.10;;;185.70;;
1995;SDS011;38556;47.068;15.408;2022-08-21T13:54:34;211.73;;;200.17;;
1995;SDS011;38556;47.068;15.408;2022-08-21T13:57:03;196.80;;;185.40;;
1995;SDS011;38556;47.068;15.408;2022-08-21T13:59:32;199.90;;;188.23;;
1995;SDS011;38556;47.068;15.408;2022-08-21T14:02:02;199.57;;;188.07;;
1995;SDS011;38556;47.068;15.408;2022-08-21T14:04:42;199.63;;;188.03;;
1995;SDS011;38556;47.068;15.408;2022-08-21T14:07:17;200.57;;;188.97;;
1995;SDS011;38556;47.068;15.408;2022-08-21T14:09:46;200.80;;;188.97;;
1995;SDS011;38556;47.068;15.408;2022-08-21T14:12:14;177.77;;;166.47;;
1995;SDS011;38556;47.068;15.408;2022-08-21T14:14:43;179.90;;;168.77;;
1995;SDS011;38556;47.068;15.408;2022-08-21T14:17:13;199.40;;;187.20;;